sensor_id;sensor_type;location;lat;lon;timestamp;P1;durP1;ratioP1;P2;durP2;ratioP2
4325;SDS011;58429;49.826;10.880;2023-05-10T00:00:06;9.1;;;3.6;;
4325;SDS011;58429;49.826;10.880;2023-05-10T00:01:06;7.9;;;3.6;;
4325;SDS011;58429;49.826;10.880;2023-05-10T00:02:06;7.9;;;3.6;;
4325;SDS011;58429;49.826;10.880;2023-05-10T00:03:06;7.9;;;3.6;;
4325;SDS011;58429;49.826;10.880;2023-05-10T00:04:06;7.1;;;3.4;;
4325;SDS011;58429;49.826;10.880;2023-05-10T00:05:06;7.1;;;3.4;;
4325;SDS011;58429;49.826;10.880;2023-05-10T00:06:06;7.1;;;3.4;;
4325;SDS011;58429;49.826;10.880;2023-05-10T00:07:06;7.8;;;3.3;;
4325;SDS011;58429;49.826;10.880;2023-05-10T00:08:06;7.8;;;3.3;;
4325;SDS011;58429;49.826;10.880;2023-05-10T00:09:06;7.8;;;3.3;;
4325;SDS011;58429;49.826;10.880;2023-05-10T00:10:06;8;;;3.4;;
4325;SDS011;58429;49.826;10.880;2023-05-10T00:11:06;8;;;3.4;;
4325;SDS011;58429;49.826;10.880;2023-05-10T00:12:06;8;;;3.4;;
4325;SDS011;58429;49.826;10.880;2023-05-10T00:13:06;7.9;;;3.4;;
4325;SDS011;58429;49.826;10.880;2023-05-10T00:14:06;7.9;;;3.4;;
4325;SDS011;58429;49.826;10.880;2023-05-10T00:15:07;7.9;;;3.4;;
4325;SDS011;58429;49.826;10.880;2023-05-10T00:16:06;8.6;;;3.4;;
4325;SDS011;58429;49.826;10.880;2023-05-10T00:17:06;8.6;;;3.4;;
4325;SDS011;58429;49.826;10.880;2023-05-10T00:18:06;8.6;;;3.4;;
4325;SDS011;58429;49.826;10.880;2023-05-10T00:19:06;9.5;;;3.6;;
4325;SDS011;58429;49.826;10.880;2023-05-10T00:20:06;9.5;;;3.6;;
4325;SDS011;58429;49.826;10.880;2023-05-10T00:21:06;9.5;;;3.6;;
4325;SDS011;58429;49.826;10.880;2023-05-10T00:22:06;7.5;;;3.2;;
4325;SDS011;58429;49.826;10.880;2023-05-10T00:23:06;7.5;;;3.2;;
4325;SDS011;58429;49.826;10.880;2023-05-10T00:24:06;7.5;;;3.2;;
4325;SDS011;58429;49.826;10.880;2023-05-10T00:25:07;8.2;;;3.4;;
4325;SDS011;58429;49.826;10.880;2023-05-10T00:26:06;8.2;;;3.4;;
4325;SDS011;58429;49.826;10.880;2023-05-10T00:27:06;8.2;;;3.4;;
4325;SDS011;58429;49.826;10.880;2023-05-10T00:28:06;7.8;;;3.5;;
4325;SDS011;58429;49.826;10.880;2023-05-10T00:29:06;7.8;;;3.5;;
4325;SDS011;58429;49.826;10.880;2023-05-10T00:30:07;7.8;;;3.5;;
4325;SDS011;58429;49.826;10.880;2023-05-10T00:31:06;7.7;;;3.6;;
4325;SDS011;58429;49.826;10.880;2023-05-10T00:32:06;7.7;;;3.6;;
4325;SDS011;58429;49.826;10.880;2023-05-10T00:33:06;7.7;;;3.6;;
4325;SDS011;58429;49.826;10.880;2023-05-10T00:34:06;8;;;3.6;;
4325;SDS011;58429;49.826;10.880;2023-05-10T00:35:06;8;;;3.6;;
4325;SDS011;58429;49.826;10.880;2023-05-10T00:36:06;8;;;3.6;;
4325;SDS011;58429;49.826;10.880;2023-05-10T00:37:06;8.7;;;3.8;;
4325;SDS011;58429;49.826;10.880;2023-05-10T00:38:06;8.7;;;3.8;;
4325;SDS011;58429;49.826;10.880;2023-05-10T00:39:06;8.7;;;3.8;;
4325;SDS011;58429;49.826;10.880;2023-05-10T00:40:07;7.9;;;4.1;;
4325;SDS011;58429;49.826;10.880;2023-05-10T00:41:06;7.9;;;4.1;;
4325;SDS011;58429;49.826;10.880;2023-05-10T00:42:06;7.9;;;4.1;;
4325;SDS011;58429;49.826;10.880;2023-05-10T00:43:06;8.2;;;4;;
4325;SDS011;58429;49.826;10.880;2023-05-10T00:44:06;8.2;;;4;;
4325;SDS011;58429;49.826;10.880;2023-05-10T00:45:07;8.2;;;4;;
4325;SDS011;58429;49.826;10.880;2023-05-10T00:46:06;9.4;;;3.8;;
4325;SDS011;58429;49.826;10.880;2023-05-10T00:47:06;9.4;;;3.8;;
4325;SDS011;58429;49.826;10.880;2023-05-10T00:48:06;9.4;;;3.8;;
4325;SDS011;58429;49.826;10.880;2023-05-10T00:49:06;8.5;;;4.2;;
4325;SDS011;58429;49.826;10.880;2023-05-10T00:50:07;8.5;;;4.2;;
4325;SDS011;58429;49.826;10.880;2023-05-10T00:51:06;8.5;;;4.2;;
4325;SDS011;58429;49.826;10.880;2023-05-10T00:52:06;8.9;;;4.1;;
4325;SDS011;58429;49.826;10.880;2023-05-10T00:53:07;8.9;;;4.1;;
4325;SDS011;58429;49.826;10.880;2023-05-10T00:54:06;8.9;;;4.1;;
4325;SDS011;58429;49.826;10.880;2023-05-10T00:55:07;9.5;;;4.4;;
4325;SDS011;58429;49.826;10.880;2023-05-10T00:56:06;9.5;;;4.4;;
4325;SDS011;58429;49.826;10.880;2023-05-10T00:57:06;9.5;;;4.4;;
4325;SDS011;58429;49.826;10.880;2023-05-10T00:58:06;8.6;;;4.1;;
4325;SDS011;58429;49.826;10.880;2023-05-10T00:59:07;8.6;;;4.1;;
4325;SDS011;58429;49.826;10.880;2023-05-10T01:00:07;8.6;;;4.1;;
4325;SDS011;58429;49.826;10.880;2023-05-10T01:01:06;8.5;;;4.7;;
4325;SDS011;58429;49.826;10.880;2023-05-10T01:02:06;8.5;;;4.7;;
4325;SDS011;58429;49.826;10.880;2023-05-10T01:03:06;8.5;;;4.7;;
4325;SDS011;58429;49.826;10.880;2023-05-10T01:04:07;9.1;;;4.3;;
4325;SDS011;58429;49.826;10.880;2023-05-10T01:05:06;9.1;;;4.3;;
4325;SDS011;58429;49.826;10.880;2023-05-10T01:06:07;9.1;;;4.3;;
4325;SDS011;58429;49.826;10.880;2023-05-10T01:07:07;8.2;;;4.6;;
4325;SDS011;58429;49.826;10.880;2023-05-10T01:08:07;8.2;;;4.6;;
4325;SDS011;58429;49.826;10.880;2023-05-10T01:09:06;8.2;;;4.6;;
4325;SDS011;58429;49.826;10.880;2023-05-10T01:10:07;9.4;;;4.9;;
4325;SDS011;58429;49.826;10.880;2023-05-10T01:11:07;9.4;;;4.9;;
4325;SDS011;58429;49.826;10.880;2023-05-10T01:12:07;9.4;;;4.9;;
4325;SDS011;58429;49.826;10.880;2023-05-10T01:13:06;8.6;;;4.6;;
4325;SDS011;58429;49.826;10.880;2023-05-10T01:14:07;8.6;;;4.6;;
4325;SDS011;58429;49.826;10.880;2023-05-10T01:15:07;8.6;;;4.6;;
4325;SDS011;58429;49.826;10.880;2023-05-10T01:16:06;8.6;;;4.6;;
4325;SDS011;58429;49.826;10.880;2023-05-10T01:17:06;9.2;;;5.1;;
4325;SDS011;58429;49.826;10.880;2023-05-10T01:18:06;9.2;;;5.1;;
4325;SDS011;58429;49.826;10.880;2023-05-10T01:19:08;9.2;;;5.1;;
4325;SDS011;58429;49.826;10.880;2023-05-10T01:20:07;9.7;;;5;;
4325;SDS011;58429;49.826;10.880;2023-05-10T01:21:13;9.7;;;5;;
4325;SDS011;58429;49.826;10.880;2023-05-10T01:22:10;9.7;;;5;;
4325;SDS011;58429;49.826;10.880;2023-05-10T01:23:10;10;;;5.5;;
4325;SDS011;58429;49.826;10.880;2023-05-10T01:24:15;10;;;5.5;;
4325;SDS011;58429;49.826;10.880;2023-05-10T01:25:11;10;;;5.5;;
4325;SDS011;58429;49.826;10.880;2023-05-10T01:26:11;10;;;5.2;;
4325;SDS011;58429;49.826;10.880;2023-05-10T01:27:45;10;;;5.2;;
4325;SDS011;58429;49.826;10.880;2023-05-10T01:28:13;10;;;5.2;;
4325;SDS011;58429;49.826;10.880;2023-05-10T01:29:18;9.1;;;5.2;;
4325;SDS011;58429;49.826;10.880;2023-05-10T01:30:08;9.1;;;5.2;;
4325;SDS011;58429;49.826;10.880;2023-05-10T01:31:08;9.1;;;5.2;;
4325;SDS011;58429;49.826;10.880;2023-05-10T01:32:10;9.6;;;5.4;;
4325;SDS011;58429;49.826;10.880;2023-05-10T01:33:08;9.6;;;5.4;;
4325;SDS011;58429;49.826;10.880;2023-05-10T01:34:07;9.6;;;5.4;;
4325;SDS011;58429;49.826;10.880;2023-05-10T01:35:07;10.1;;;5.5;;
4325;SDS011;58429;49.826;10.880;2023-05-10T01:36:08;10.1;;;5.5;;
4325;SDS011;58429;49.826;10.880;2023-05-10T01:37:07;10.1;;;5.5;;
4325;SDS011;58429;49.826;10.880;2023-05-10T01:38:07;10.6;;;5.7;;
4325;SDS011;58429;49.826;10.880;2023-05-10T01:39:08;10.6;;;5.7;;
4325;SDS011;58429;49.826;10.880;2023-05-10T01:40:08;10.6;;;5.7;;
4325;SDS011;58429;49.826;10.880;2023-05-10T01:41:08;9.1;;;4.9;;
4325;SDS011;58429;49.826;10.880;2023-05-10T01:42:07;9.1;;;4.9;;
4325;SDS011;58429;49.826;10.880;2023-05-10T01:43:08;9.1;;;4.9;;
4325;SDS011;58429;49.826;10.880;2023-05-10T01:44:09;12.9;;;6;;
4325;SDS011;58429;49.826;10.880;2023-05-10T01:45:07;12.9;;;6;;
4325;SDS011;58429;49.826;10.880;2023-05-10T01:46:07;12.9;;;6;;
4325;SDS011;58429;49.826;10.880;2023-05-10T01:47:07;11;;;5.7;;
4325;SDS011;58429;49.826;10.880;2023-05-10T01:48:08;11;;;5.7;;
4325;SDS011;58429;49.826;10.880;2023-05-10T01:49:07;11;;;5.7;;
4325;SDS011;58429;49.826;10.880;2023-05-10T01:50:09;10.7;;;5.6;;
4325;SDS011;58429;49.826;10.880;2023-05-10T01:51:07;10.7;;;5.6;;
4325;SDS011;58429;49.826;10.880;2023-05-10T01:52:08;10.7;;;5.6;;
4325;SDS011;58429;49.826;10.880;2023-05-10T01:53:08;11.1;;;6;;
4325;SDS011;58429;49.826;10.880;2023-05-10T01:54:07;11.1;;;6;;
4325;SDS011;58429;49.826;10.880;2023-05-10T01:55:07;11.1;;;6;;
4325;SDS011;58429;49.826;10.880;2023-05-10T01:56:07;11.1;;;6;;
4325;SDS011;58429;49.826;10.880;2023-05-10T01:57:07;11.1;;;6;;
4325;SDS011;58429;49.826;10.880;2023-05-10T01:58:07;11.1;;;6;;
4325;SDS011;58429;49.826;10.880;2023-05-10T01:59:08;10.4;;;6.3;;
4325;SDS011;58429;49.826;10.880;2023-05-10T02:00:07;10.4;;;6.3;;
4325;SDS011;58429;49.826;10.880;2023-05-10T02:01:07;10.4;;;6.3;;
4325;SDS011;58429;49.826;10.880;2023-05-10T02:02:07;12.6;;;6.5;;
4325;SDS011;58429;49.826;10.880;2023-05-10T02:03:07;12.6;;;6.5;;
4325;SDS011;58429;49.826;10.880;2023-05-10T02:04:07;12.6;;;6.5;;
4325;SDS011;58429;49.826;10.880;2023-05-10T02:05:07;11.1;;;6.3;;
4325;SDS011;58429;49.826;10.880;2023-05-10T02:06:07;11.1;;;6.3;;
4325;SDS011;58429;49.826;10.880;2023-05-10T02:07:07;11.1;;;6.3;;
4325;SDS011;58429;49.826;10.880;2023-05-10T02:08:07;12.9;;;6.8;;
4325;SDS011;58429;49.826;10.880;2023-05-10T02:09:07;12.9;;;6.8;;
4325;SDS011;58429;49.826;10.880;2023-05-10T02:10:07;12.9;;;6.8;;
4325;SDS011;58429;49.826;10.880;2023-05-10T02:11:07;10.8;;;6.2;;
4325;SDS011;58429;49.826;10.880;2023-05-10T02:12:07;10.8;;;6.2;;
4325;SDS011;58429;49.826;10.880;2023-05-10T02:13:07;10.8;;;6.2;;
4325;SDS011;58429;49.826;10.880;2023-05-10T02:14:07;11.5;;;6.3;;
4325;SDS011;58429;49.826;10.880;2023-05-10T02:15:07;11.5;;;6.3;;
4325;SDS011;58429;49.826;10.880;2023-05-10T02:16:07;11.5;;;6.3;;
4325;SDS011;58429;49.826;10.880;2023-05-10T02:17:07;11.4;;;6.7;;
4325;SDS011;58429;49.826;10.880;2023-05-10T02:18:07;11.4;;;6.7;;
4325;SDS011;58429;49.826;10.880;2023-05-10T02:19:07;11.4;;;6.7;;
4325;SDS011;58429;49.826;10.880;2023-05-10T02:20:08;14;;;7.1;;
4325;SDS011;58429;49.826;10.880;2023-05-10T02:21:07;14;;;7.1;;
4325;SDS011;58429;49.826;10.880;2023-05-10T02:22:07;14;;;7.1;;
4325;SDS011;58429;49.826;10.880;2023-05-10T02:23:07;11.8;;;6.4;;
4325;SDS011;58429;49.826;10.880;2023-05-10T02:24:07;11.8;;;6.4;;
4325;SDS011;58429;49.826;10.880;2023-05-10T02:25:07;11.8;;;6.4;;
4325;SDS011;58429;49.826;10.880;2023-05-10T02:26:07;12.1;;;6.4;;
4325;SDS011;58429;49.826;10.880;2023-05-10T02:27:07;12.1;;;6.4;;
4325;SDS011;58429;49.826;10.880;2023-05-10T02:28:07;12.1;;;6.4;;
4325;SDS011;58429;49.826;10.880;2023-05-10T02:29:07;11;;;6.1;;
4325;SDS011;58429;49.826;10.880;2023-05-10T02:30:07;11;;;6.1;;
4325;SDS011;58429;49.826;10.880;2023-05-10T02:31:07;11;;;6.1;;
4325;SDS011;58429;49.826;10.880;2023-05-10T02:32:07;10.9;;;6.3;;
4325;SDS011;58429;49.826;10.880;2023-05-10T02:33:07;10.9;;;6.3;;
4325;SDS011;58429;49.826;10.880;2023-05-10T02:34:07;10.9;;;6.3;;
4325;SDS011;58429;49.826;10.880;2023-05-10T02:35:07;11.4;;;6.4;;
4325;SDS011;58429;49.826;10.880;2023-05-10T02:36:07;11.4;;;6.4;;
4325;SDS011;58429;49.826;10.880;2023-05-10T02:37:07;11.4;;;6.4;;
4325;SDS011;58429;49.826;10.880;2023-05-10T02:38:07;11.9;;;6.7;;
4325;SDS011;58429;49.826;10.880;2023-05-10T02:39:07;11.9;;;6.7;;
4325;SDS011;58429;49.826;10.880;2023-05-10T02:40:07;11.9;;;6.7;;
4325;SDS011;58429;49.826;10.880;2023-05-10T02:41:07;11.4;;;6.3;;
4325;SDS011;58429;49.826;10.880;2023-05-10T02:42:07;11.4;;;6.3;;
4325;SDS011;58429;49.826;10.880;2023-05-10T02:43:07;11.4;;;6.3;;
4325;SDS011;58429;49.826;10.880;2023-05-10T02:44:07;11.2;;;6.3;;
4325;SDS011;58429;49.826;10.880;2023-05-10T02:45:08;11.2;;;6.3;;
4325;SDS011;58429;49.826;10.880;2023-05-10T02:46:07;11.2;;;6.3;;
4325;SDS011;58429;49.826;10.880;2023-05-10T02:47:07;12.3;;;6.2;;
4325;SDS011;58429;49.826;10.880;2023-05-10T02:48:07;12.3;;;6.2;;
4325;SDS011;58429;49.826;10.880;2023-05-10T02:49:07;12.3;;;6.2;;
4325;SDS011;58429;49.826;10.880;2023-05-10T02:50:07;12.4;;;6.7;;
4325;SDS011;58429;49.826;10.880;2023-05-10T02:51:07;12.4;;;6.7;;
4325;SDS011;58429;49.826;10.880;2023-05-10T02:52:07;12.4;;;6.7;;
4325;SDS011;58429;49.826;10.880;2023-05-10T02:53:09;12.7;;;6.9;;
4325;SDS011;58429;49.826;10.880;2023-05-10T02:54:09;12.7;;;6.9;;
4325;SDS011;58429;49.826;10.880;2023-05-10T02:55:07;12.7;;;6.9;;
4325;SDS011;58429;49.826;10.880;2023-05-10T02:56:09;10.1;;;5.6;;
4325;SDS011;58429;49.826;10.880;2023-05-10T02:57:07;10.1;;;5.6;;
4325;SDS011;58429;49.826;10.880;2023-05-10T02:58:07;10.1;;;5.6;;
4325;SDS011;58429;49.826;10.880;2023-05-10T02:59:07;8.8;;;4.4;;
4325;SDS011;58429;49.826;10.880;2023-05-10T03:00:07;8.8;;;4.4;;
4325;SDS011;58429;49.826;10.880;2023-05-10T03:01:07;8.8;;;4.4;;
4325;SDS011;58429;49.826;10.880;2023-05-10T03:02:07;11.6;;;5.4;;
4325;SDS011;58429;49.826;10.880;2023-05-10T03:03:07;11.6;;;5.4;;
4325;SDS011;58429;49.826;10.880;2023-05-10T03:04:07;11.6;;;5.4;;
4325;SDS011;58429;49.826;10.880;2023-05-10T03:05:07;8.6;;;4.3;;
4325;SDS011;58429;49.826;10.880;2023-05-10T03:06:07;8.6;;;4.3;;
4325;SDS011;58429;49.826;10.880;2023-05-10T03:07:07;8.6;;;4.3;;
4325;SDS011;58429;49.826;10.880;2023-05-10T03:08:07;8;;;3.2;;
4325;SDS011;58429;49.826;10.880;2023-05-10T03:09:07;8;;;3.2;;
4325;SDS011;58429;49.826;10.880;2023-05-10T03:10:07;8;;;3.2;;
4325;SDS011;58429;49.826;10.880;2023-05-10T03:11:10;7.2;;;3;;
4325;SDS011;58429;49.826;10.880;2023-05-10T03:12:08;7.2;;;3;;
4325;SDS011;58429;49.826;10.880;2023-05-10T03:13:09;7.2;;;3;;
4325;SDS011;58429;49.826;10.880;2023-05-10T03:14:10;7.4;;;3.3;;
4325;SDS011;58429;49.826;10.880;2023-05-10T03:15:09;7.4;;;3.3;;
4325;SDS011;58429;49.826;10.880;2023-05-10T03:16:08;7.4;;;3.3;;
4325;SDS011;58429;49.826;10.880;2023-05-10T03:17:09;7.4;;;3.3;;
4325;SDS011;58429;49.826;10.880;2023-05-10T03:18:07;8.4;;;3.3;;
4325;SDS011;58429;49.826;10.880;2023-05-10T03:19:11;8.4;;;3.3;;
4325;SDS011;58429;49.826;10.880;2023-05-10T03:20:08;8.4;;;3.3;;
4325;SDS011;58429;49.826;10.880;2023-05-10T03:21:07;7.3;;;3;;
4325;SDS011;58429;49.826;10.880;2023-05-10T03:22:08;7.3;;;3;;
4325;SDS011;58429;49.826;10.880;2023-05-10T03:23:09;7.3;;;3;;
4325;SDS011;58429;49.826;10.880;2023-05-10T03:24:08;7.7;;;3.2;;
4325;SDS011;58429;49.826;10.880;2023-05-10T03:25:07;7.7;;;3.2;;
4325;SDS011;58429;49.826;10.880;2023-05-10T03:26:07;7.7;;;3.2;;
4325;SDS011;58429;49.826;10.880;2023-05-10T03:27:07;7.2;;;2.9;;
4325;SDS011;58429;49.826;10.880;2023-05-10T03:28:07;7.2;;;2.9;;
4325;SDS011;58429;49.826;10.880;2023-05-10T03:29:07;7.2;;;2.9;;
4325;SDS011;58429;49.826;10.880;2023-05-10T03:30:08;7.1;;;2.3;;
4325;SDS011;58429;49.826;10.880;2023-05-10T03:31:07;7.1;;;2.3;;
4325;SDS011;58429;49.826;10.880;2023-05-10T03:32:07;7.1;;;2.3;;
4325;SDS011;58429;49.826;10.880;2023-05-10T03:33:07;6.7;;;2.2;;
4325;SDS011;58429;49.826;10.880;2023-05-10T03:34:07;6.7;;;2.2;;
4325;SDS011;58429;49.826;10.880;2023-05-10T03:35:07;6.7;;;2.2;;
4325;SDS011;58429;49.826;10.880;2023-05-10T03:36:07;5.5;;;1.8;;
4325;SDS011;58429;49.826;10.880;2023-05-10T03:37:07;5.5;;;1.8;;
4325;SDS011;58429;49.826;10.880;2023-05-10T03:38:07;5.5;;;1.8;;
4325;SDS011;58429;49.826;10.880;2023-05-10T03:39:07;6.1;;;1.9;;
4325;SDS011;58429;49.826;10.880;2023-05-10T03:40:07;6.1;;;1.9;;
4325;SDS011;58429;49.826;10.880;2023-05-10T03:41:07;6.1;;;1.9;;
4325;SDS011;58429;49.826;10.880;2023-05-10T03:42:07;5.6;;;1.7;;
4325;SDS011;58429;49.826;10.880;2023-05-10T03:43:07;5.6;;;1.7;;
4325;SDS011;58429;49.826;10.880;2023-05-10T03:44:07;5.6;;;1.7;;
4325;SDS011;58429;49.826;10.880;2023-05-10T03:45:07;5;;;1.5;;
4325;SDS011;58429;49.826;10.880;2023-05-10T03:46:07;5;;;1.5;;
4325;SDS011;58429;49.826;10.880;2023-05-10T03:47:07;5;;;1.5;;
4325;SDS011;58429;49.826;10.880;2023-05-10T03:48:07;5.6;;;1.6;;
4325;SDS011;58429;49.826;10.880;2023-05-10T03:49:07;5.6;;;1.6;;
4325;SDS011;58429;49.826;10.880;2023-05-10T03:50:07;5.6;;;1.6;;
4325;SDS011;58429;49.826;10.880;2023-05-10T03:51:07;5.4;;;1.6;;
4325;SDS011;58429;49.826;10.880;2023-05-10T03:52:07;5.4;;;1.6;;
4325;SDS011;58429;49.826;10.880;2023-05-10T03:53:07;5.4;;;1.6;;
4325;SDS011;58429;49.826;10.880;2023-05-10T03:54:07;4.7;;;1.5;;
4325;SDS011;58429;49.826;10.880;2023-05-10T03:55:07;4.7;;;1.5;;
4325;SDS011;58429;49.826;10.880;2023-05-10T03:56:07;4.7;;;1.5;;
4325;SDS011;58429;49.826;10.880;2023-05-10T03:57:07;4.8;;;1.3;;
4325;SDS011;58429;49.826;10.880;2023-05-10T03:58:10;4.8;;;1.3;;
4325;SDS011;58429;49.826;10.880;2023-05-10T03:59:07;4.8;;;1.3;;
4325;SDS011;58429;49.826;10.880;2023-05-10T04:00:07;4.5;;;1.4;;
4325;SDS011;58429;49.826;10.880;2023-05-10T04:01:07;4.5;;;1.4;;
4325;SDS011;58429;49.826;10.880;2023-05-10T04:02:07;4.5;;;1.4;;
4325;SDS011;58429;49.826;10.880;2023-05-10T04:03:07;4;;;1.2;;
4325;SDS011;58429;49.826;10.880;2023-05-10T04:04:07;4;;;1.2;;
4325;SDS011;58429;49.826;10.880;2023-05-10T04:05:07;4;;;1.2;;
4325;SDS011;58429;49.826;10.880;2023-05-10T04:06:07;4.6;;;1.2;;
4325;SDS011;58429;49.826;10.880;2023-05-10T04:07:07;4.6;;;1.2;;
4325;SDS011;58429;49.826;10.880;2023-05-10T04:08:07;4.6;;;1.2;;
4325;SDS011;58429;49.826;10.880;2023-05-10T04:09:07;3.9;;;1.1;;
4325;SDS011;58429;49.826;10.880;2023-05-10T04:10:07;3.9;;;1.1;;
4325;SDS011;58429;49.826;10.880;2023-05-10T04:11:07;3.9;;;1.1;;
4325;SDS011;58429;49.826;10.880;2023-05-10T04:12:07;3.8;;;1;;
4325;SDS011;58429;49.826;10.880;2023-05-10T04:13:07;3.8;;;1;;
4325;SDS011;58429;49.826;10.880;2023-05-10T04:14:07;3.8;;;1;;
4325;SDS011;58429;49.826;10.880;2023-05-10T04:15:07;3.4;;;1;;
4325;SDS011;58429;49.826;10.880;2023-05-10T04:16:07;3.4;;;1;;
4325;SDS011;58429;49.826;10.880;2023-05-10T04:17:07;3.4;;;1;;
4325;SDS011;58429;49.826;10.880;2023-05-10T04:18:07;3.2;;;1;;
4325;SDS011;58429;49.826;10.880;2023-05-10T04:19:07;3.2;;;1;;
4325;SDS011;58429;49.826;10.880;2023-05-10T04:20:07;3.2;;;1;;
4325;SDS011;58429;49.826;10.880;2023-05-10T04:21:10;2.8;;;0.8;;
4325;SDS011;58429;49.826;10.880;2023-05-10T04:22:07;2.8;;;0.8;;
4325;SDS011;58429;49.826;10.880;2023-05-10T04:23:07;2.8;;;0.8;;
4325;SDS011;58429;49.826;10.880;2023-05-10T04:24:07;6.2;;;1.7;;
4325;SDS011;58429;49.826;10.880;2023-05-10T04:25:07;6.2;;;1.7;;
4325;SDS011;58429;49.826;10.880;2023-05-10T04:26:07;6.2;;;1.7;;
4325;SDS011;58429;49.826;10.880;2023-05-10T04:27:07;4;;;1.1;;
4325;SDS011;58429;49.826;10.880;2023-05-10T04:28:07;4;;;1.1;;
4325;SDS011;58429;49.826;10.880;2023-05-10T04:29:07;4;;;1.1;;
4325;SDS011;58429;49.826;10.880;2023-05-10T04:30:07;3.3;;;0.9;;
4325;SDS011;58429;49.826;10.880;2023-05-10T04:31:08;3.3;;;0.9;;
4325;SDS011;58429;49.826;10.880;2023-05-10T04:32:07;3.3;;;0.9;;
4325;SDS011;58429;49.826;10.880;2023-05-10T04:33:07;3.6;;;1;;
4325;SDS011;58429;49.826;10.880;2023-05-10T04:34:07;3.6;;;1;;
4325;SDS011;58429;49.826;10.880;2023-05-10T04:35:07;3.6;;;1;;
4325;SDS011;58429;49.826;10.880;2023-05-10T04:36:07;3.7;;;1;;
4325;SDS011;58429;49.826;10.880;2023-05-10T04:37:07;3.7;;;1;;
4325;SDS011;58429;49.826;10.880;2023-05-10T04:38:07;3.7;;;1;;
4325;SDS011;58429;49.826;10.880;2023-05-10T04:39:07;3.5;;;1;;
4325;SDS011;58429;49.826;10.880;2023-05-10T04:40:07;3.5;;;1;;
4325;SDS011;58429;49.826;10.880;2023-05-10T04:41:08;3.5;;;1;;
4325;SDS011;58429;49.826;10.880;2023-05-10T04:42:07;3.4;;;1;;
4325;SDS011;58429;49.826;10.880;2023-05-10T04:43:07;3.4;;;1;;
4325;SDS011;58429;49.826;10.880;2023-05-10T04:44:07;3.4;;;1;;
4325;SDS011;58429;49.826;10.880;2023-05-10T04:45:07;3.6;;;1.1;;
4325;SDS011;58429;49.826;10.880;2023-05-10T04:46:07;3.6;;;1.1;;
4325;SDS011;58429;49.826;10.880;2023-05-10T04:47:07;3.6;;;1.1;;
4325;SDS011;58429;49.826;10.880;2023-05-10T04:48:07;3.9;;;1;;
4325;SDS011;58429;49.826;10.880;2023-05-10T04:49:07;3.9;;;1;;
4325;SDS011;58429;49.826;10.880;2023-05-10T04:50:07;3.9;;;1;;
4325;SDS011;58429;49.826;10.880;2023-05-10T04:51:07;2.8;;;0.8;;
4325;SDS011;58429;49.826;10.880;2023-05-10T04:52:07;2.8;;;0.8;;
4325;SDS011;58429;49.826;10.880;2023-05-10T04:53:07;2.8;;;0.8;;
4325;SDS011;58429;49.826;10.880;2023-05-10T04:54:07;3.6;;;0.9;;
4325;SDS011;58429;49.826;10.880;2023-05-10T04:55:07;3.6;;;0.9;;
4325;SDS011;58429;49.826;10.880;2023-05-10T04:56:07;3.6;;;0.9;;
4325;SDS011;58429;49.826;10.880;2023-05-10T04:57:07;3.5;;;0.9;;
4325;SDS011;58429;49.826;10.880;2023-05-10T04:58:07;3.5;;;0.9;;
4325;SDS011;58429;49.826;10.880;2023-05-10T04:59:07;3.5;;;0.9;;
4325;SDS011;58429;49.826;10.880;2023-05-10T05:00:08;2.4;;;0.7;;
4325;SDS011;58429;49.826;10.880;2023-05-10T05:01:07;2.4;;;0.7;;
4325;SDS011;58429;49.826;10.880;2023-05-10T05:02:07;2.4;;;0.7;;
4325;SDS011;58429;49.826;10.880;2023-05-10T05:03:07;2;;;0.6;;
4325;SDS011;58429;49.826;10.880;2023-05-10T05:04:07;2;;;0.6;;
4325;SDS011;58429;49.826;10.880;2023-05-10T05:05:07;2;;;0.6;;
4325;SDS011;58429;49.826;10.880;2023-05-10T05:06:08;1.5;;;0.6;;
4325;SDS011;58429;49.826;10.880;2023-05-10T05:07:07;1.5;;;0.6;;
4325;SDS011;58429;49.826;10.880;2023-05-10T05:08:07;1.5;;;0.6;;
4325;SDS011;58429;49.826;10.880;2023-05-10T05:09:07;2.4;;;0.6;;
4325;SDS011;58429;49.826;10.880;2023-05-10T05:10:08;2.4;;;0.6;;
4325;SDS011;58429;49.826;10.880;2023-05-10T05:11:07;2.4;;;0.6;;
4325;SDS011;58429;49.826;10.880;2023-05-10T05:12:07;2.4;;;0.6;;
4325;SDS011;58429;49.826;10.880;2023-05-10T05:13:07;2.4;;;0.6;;
4325;SDS011;58429;49.826;10.880;2023-05-10T05:14:07;2.4;;;0.6;;
4325;SDS011;58429;49.826;10.880;2023-05-10T05:15:08;2.4;;;0.6;;
4325;SDS011;58429;49.826;10.880;2023-05-10T05:16:07;2;;;0.7;;
4325;SDS011;58429;49.826;10.880;2023-05-10T05:17:07;2;;;0.7;;
4325;SDS011;58429;49.826;10.880;2023-05-10T05:18:07;2;;;0.7;;
4325;SDS011;58429;49.826;10.880;2023-05-10T05:19:07;2.9;;;0.7;;
4325;SDS011;58429;49.826;10.880;2023-05-10T05:20:08;2.9;;;0.7;;
4325;SDS011;58429;49.826;10.880;2023-05-10T05:21:13;2.9;;;0.7;;
4325;SDS011;58429;49.826;10.880;2023-05-10T05:22:07;2.2;;;0.7;;
4325;SDS011;58429;49.826;10.880;2023-05-10T05:23:07;2.2;;;0.7;;
4325;SDS011;58429;49.826;10.880;2023-05-10T05:24:07;2.2;;;0.7;;
4325;SDS011;58429;49.826;10.880;2023-05-10T05:25:08;2.6;;;0.7;;
4325;SDS011;58429;49.826;10.880;2023-05-10T05:26:07;2.6;;;0.7;;
4325;SDS011;58429;49.826;10.880;2023-05-10T05:27:07;2.6;;;0.7;;
4325;SDS011;58429;49.826;10.880;2023-05-10T05:28:07;2.2;;;0.7;;
4325;SDS011;58429;49.826;10.880;2023-05-10T05:29:07;2.2;;;0.7;;
4325;SDS011;58429;49.826;10.880;2023-05-10T05:30:08;2.2;;;0.7;;
4325;SDS011;58429;49.826;10.880;2023-05-10T05:31:07;2.4;;;0.7;;
4325;SDS011;58429;49.826;10.880;2023-05-10T05:32:07;2.4;;;0.7;;
4325;SDS011;58429;49.826;10.880;2023-05-10T05:33:07;2.4;;;0.7;;
4325;SDS011;58429;49.826;10.880;2023-05-10T05:34:07;2.3;;;0.8;;
4325;SDS011;58429;49.826;10.880;2023-05-10T05:35:08;2.3;;;0.8;;
4325;SDS011;58429;49.826;10.880;2023-05-10T05:36:08;2.3;;;0.8;;
4325;SDS011;58429;49.826;10.880;2023-05-10T05:37:07;2.1;;;0.6;;
4325;SDS011;58429;49.826;10.880;2023-05-10T05:38:08;2.1;;;0.6;;
4325;SDS011;58429;49.826;10.880;2023-05-10T05:39:07;2.1;;;0.6;;
4325;SDS011;58429;49.826;10.880;2023-05-10T05:40:08;2;;;0.7;;
4325;SDS011;58429;49.826;10.880;2023-05-10T05:41:07;2;;;0.7;;
4325;SDS011;58429;49.826;10.880;2023-05-10T05:42:07;2;;;0.7;;
4325;SDS011;58429;49.826;10.880;2023-05-10T05:43:08;1.8;;;0.6;;
4325;SDS011;58429;49.826;10.880;2023-05-10T05:44:07;1.8;;;0.6;;
4325;SDS011;58429;49.826;10.880;2023-05-10T05:45:08;1.8;;;0.6;;
4325;SDS011;58429;49.826;10.880;2023-05-10T05:46:07;2.4;;;0.8;;
4325;SDS011;58429;49.826;10.880;2023-05-10T05:47:08;2.4;;;0.8;;
4325;SDS011;58429;49.826;10.880;2023-05-10T05:48:08;2.4;;;0.8;;
4325;SDS011;58429;49.826;10.880;2023-05-10T05:49:07;2.7;;;0.8;;
4325;SDS011;58429;49.826;10.880;2023-05-10T05:50:08;2.7;;;0.8;;
4325;SDS011;58429;49.826;10.880;2023-05-10T05:51:07;2.7;;;0.8;;
4325;SDS011;58429;49.826;10.880;2023-05-10T05:52:07;2.8;;;0.9;;
4325;SDS011;58429;49.826;10.880;2023-05-10T05:53:08;2.8;;;0.9;;
4325;SDS011;58429;49.826;10.880;2023-05-10T05:54:07;2.8;;;0.9;;
4325;SDS011;58429;49.826;10.880;2023-05-10T05:55:08;2.9;;;0.8;;
4325;SDS011;58429;49.826;10.880;2023-05-10T05:56:07;2.9;;;0.8;;
4325;SDS011;58429;49.826;10.880;2023-05-10T05:57:07;2.9;;;0.8;;
4325;SDS011;58429;49.826;10.880;2023-05-10T05:58:07;2.8;;;0.9;;
4325;SDS011;58429;49.826;10.880;2023-05-10T05:59:08;2.8;;;0.9;;
4325;SDS011;58429;49.826;10.880;2023-05-10T06:00:08;2.8;;;0.9;;
4325;SDS011;58429;49.826;10.880;2023-05-10T06:01:07;2.4;;;0.8;;
4325;SDS011;58429;49.826;10.880;2023-05-10T06:02:08;2.4;;;0.8;;
4325;SDS011;58429;49.826;10.880;2023-05-10T06:03:07;2.4;;;0.8;;
4325;SDS011;58429;49.826;10.880;2023-05-10T06:04:08;3.6;;;1;;
4325;SDS011;58429;49.826;10.880;2023-05-10T06:05:08;3.6;;;1;;
4325;SDS011;58429;49.826;10.880;2023-05-10T06:06:07;3.6;;;1;;
4325;SDS011;58429;49.826;10.880;2023-05-10T06:07:08;4;;;0.9;;
4325;SDS011;58429;49.826;10.880;2023-05-10T06:08:07;4;;;0.9;;
4325;SDS011;58429;49.826;10.880;2023-05-10T06:09:07;4;;;0.9;;
4325;SDS011;58429;49.826;10.880;2023-05-10T06:10:08;3.1;;;1;;
4325;SDS011;58429;49.826;10.880;2023-05-10T06:11:07;3.1;;;1;;
4325;SDS011;58429;49.826;10.880;2023-05-10T06:12:07;3.1;;;1;;
4325;SDS011;58429;49.826;10.880;2023-05-10T06:13:08;3.5;;;1;;
4325;SDS011;58429;49.826;10.880;2023-05-10T06:14:08;3.5;;;1;;